Alpine Moment — VREV7 — position and weather

sailwx.info

Track history (hours):
 
Tides and Currents Weather Stations Pressure Air Temp Water Temp Dewpoint Dewpoint Depression Visibility Wind Speed Wind Dir Waves Ship Positions

Alpine Moment

Last reported at 2014-Nov-15 12:33 UTC. Time now 2014-Nov-26 11:10 UTC.
Position N 35°59' W 005°31'.
Warning: this ship's position is 10 days out of date.

Length 183 m; draft 9.8 m.

Type: Ship (hazmat cat A). MMSI: 477185800.

Date/timePositionNaut miles runAvg speedWind from/ knotsBaromVisibWave heightAir tempDewpointWater temp
2014-Nov-15 12:33N 35°59' W 005°31'9 8.6
2014-Nov-15 11:33N 36°05' W 005°23'1 0.0
2014-Nov-13 23:33N 36°06' W 005°24'1 0.7
2014-Nov-13 22:31N 36°05' W 005°24'0 0.0
2014-Nov-13 21:25N 36°05' W 005°24'0 0.1
2014-Nov-13 20:28N 36°05' W 005°24'0 0.1
2014-Nov-13 19:31N 36°05' W 005°24'0 0.0
2014-Nov-13 18:25N 36°05' W 005°24'0 0.0
2014-Nov-13 17:31N 36°05' W 005°24'0 0.0
2014-Nov-13 16:31N 36°05' W 005°24'0 0.0
2014-Nov-13 15:28N 36°05' W 005°24'0 0.0
2014-Nov-13 14:31N 36°05' W 005°24'1 1.4
2014-Nov-13 13:33N 36°05' W 005°23'7 7.1
2014-Nov-13 12:33N 36°05' W 005°14'0 0.4
2014-Nov-13 11:33N 36°05' W 005°14'1 1.3
2014-Nov-13 10:33N 36°04' W 005°13'  
2014-Nov-10 12:33N 38°34' E 008°35'1514.0
2014-Nov-10 11:31N 38°38' E 008°53'1414.3
2014-Nov-10 10:33N 38°41' E 009°11'6112.2
2014-Nov-10 05:30N 39°22' E 010°10'  
Track history (hours):
 
Tides and Currents Weather Stations Pressure Air Temp Water Temp Dewpoint Dewpoint Depression Visibility Wind Speed Wind Dir Waves Ship Positions

Alpine Moment

Last reported at 2014-Nov-15 12:33 UTC. Time now 2014-Nov-26 11:10 UTC.
Position N 35°59' W 005°31'.
Warning: this ship's position is 10 days out of date.

Length 183 m; draft 9.8 m.

Type: Ship (hazmat cat A). MMSI: 477185800.

Date/timePositionNaut miles runAvg speedWind from/ knotsBaromVisibWave heightAir tempDewpointWater temp
2014-Nov-15 12:33N 35°59' W 005°31'9 8.6
2014-Nov-15 11:33N 36°05' W 005°23'1 0.0
2014-Nov-13 23:33N 36°06' W 005°24'1 0.7
2014-Nov-13 22:31N 36°05' W 005°24'0 0.0
2014-Nov-13 21:25N 36°05' W 005°24'0 0.1
2014-Nov-13 20:28N 36°05' W 005°24'0 0.1
2014-Nov-13 19:31N 36°05' W 005°24'0 0.0
2014-Nov-13 18:25N 36°05' W 005°24'0 0.0
2014-Nov-13 17:31N 36°05' W 005°24'0 0.0
2014-Nov-13 16:31N 36°05' W 005°24'0 0.0
2014-Nov-13 15:28N 36°05' W 005°24'0 0.0
2014-Nov-13 14:31N 36°05' W 005°24'1 1.4
2014-Nov-13 13:33N 36°05' W 005°23'7 7.1
2014-Nov-13 12:33N 36°05' W 005°14'0 0.4
2014-Nov-13 11:33N 36°05' W 005°14'1 1.3
2014-Nov-13 10:33N 36°04' W 005°13'  
2014-Nov-10 12:33N 38°34' E 008°35'1514.0
2014-Nov-10 11:31N 38°38' E 008°53'1414.3
2014-Nov-10 10:33N 38°41' E 009°11'6112.2
2014-Nov-10 05:30N 39°22' E 010°10'  

Dump ship's entire track history